Terminal Aerodrome Forecast
Issued by NWS Salt Lake City, UT

Home | Current Version | Previous Version | Text Only | Print | Product List | Glossary On
Versions: 1 2 3 4 5 6 7 8 9 10 11 12 13 14 15 16 17 18 19 20 21 22 23 24 25 26 27 28 29 30 31
000
FTUS45 KSLC 021221 AAA
TAFCDC
TAF AMD
KCDC 021221Z 0212/0312 13006KT P6SM FEW120 BKN200
      TEMPO 0212/0214 -TSRA SCT070CB BKN120
     FM021800 36007KT P6SM VCTS SCT070CB BKN180
     FM030300 VRB05KT P6SM FEW100 BKN200=

USA.gov is the U.S. government's official web portal to all federal, state and local government web resources and services.